Time;durP1;ratioP1;P1;durP2;ratioP2;P2;SDS_P1;SDS_P2;PMS_P1;PMS_P2;Temp;Humidity;BMP_temperature;BMP_pressure;BME280_temperature;BME280_humidity;BME280_pressure;Samples;Min_cycle;Max_cycle;Signal;HPM_P1;HPM_P2
2021/03/31 00:02:05;;;;;;;23.60;12.80;;;12.40;56.60;;;;;;4999600;28;20088;-75
2021/03/31 00:04:31;;;;;;;25.17;12.30;;;12.30;56.10;;;;;;5009931;28;20045;-74
2021/03/31 00:06:56;;;;;;;21.80;11.27;;;12.30;56.50;;;;;;4997887;28;20038;-74
2021/03/31 00:09:22;;;;;;;21.17;12.60;;;12.20;56.30;;;;;;4997008;28;20497;-74
2021/03/31 00:11:47;;;;;;;19.97;11.67;;;12.20;57.30;;;;;;4996403;28;20027;-73
2021/03/31 00:14:14;;;;;;;20.47;12.23;;;12.10;57.40;;;;;;4979917;28;20400;-73
2021/03/31 00:16:41;;;;;;;25.57;12.10;;;12.10;58.20;;;;;;4994286;28;20471;-74
2021/03/31 00:19:06;;;;;;;21.30;12.23;;;12.00;58.60;;;;;;4998513;28;20038;-74
2021/03/31 00:21:32;;;;;;;21.87;12.13;;;12.00;58.60;;;;;;4999555;28;20083;-76
2021/03/31 00:23:58;;;;;;;22.80;12.27;;;12.00;59.10;;;;;;5000182;28;20041;-74
2021/03/31 00:26:23;;;;;;;21.30;11.37;;;11.90;59.10;;;;;;5008674;28;20046;-76
2021/03/31 00:28:49;;;;;;;20.87;10.97;;;11.90;59.20;;;;;;4982864;28;20327;-73
2021/03/31 00:31:15;;;;;;;20.37;11.77;;;11.90;59.20;;;;;;5001567;28;20109;-75
2021/03/31 00:33:41;;;;;;;22.30;12.37;;;11.90;59.40;;;;;;4996160;28;20070;-74
2021/03/31 00:36:07;;;;;;;23.07;11.57;;;11.80;58.70;;;;;;4996572;28;20058;-73
2021/03/31 00:38:33;;;;;;;22.33;11.47;;;11.90;58.60;;;;;;4995331;28;20034;-78
2021/03/31 00:40:59;;;;;;;24.00;11.53;;;11.80;58.90;;;;;;4999538;28;20133;-74
2021/03/31 00:43:24;;;;;;;23.17;12.17;;;11.80;58.40;;;;;;5000560;28;20058;-74
2021/03/31 00:45:50;;;;;;;20.27;11.03;;;11.80;58.30;;;;;;5000369;28;20030;-73
2021/03/31 00:48:16;;;;;;;23.83;12.27;;;11.80;58.30;;;;;;4997519;28;20038;-73
2021/03/31 00:50:55;;;;;;;22.30;11.60;;;11.80;58.70;;;;;;4997379;28;20021;-74
2021/03/31 00:53:35;;;;;;;22.00;11.57;;;11.80;58.70;;;;;;5001312;28;20029;-73
2021/03/31 00:56:02;;;;;;;23.17;11.63;;;11.70;58.40;;;;;;4973315;28;20042;-73
2021/03/31 00:58:28;;;;;;;23.67;11.57;;;11.70;58.60;;;;;;4998144;28;20547;-77
2021/03/31 01:00:53;;;;;;;23.70;12.30;;;11.70;58.70;;;;;;5002183;28;20037;-76
2021/03/31 01:03:19;;;;;;;20.37;11.53;;;11.60;59.10;;;;;;4997053;28;20048;-75
2021/03/31 01:05:45;;;;;;;20.03;10.77;;;11.60;59.20;;;;;;4998324;28;20026;-75
2021/03/31 01:08:11;;;;;;;20.83;11.67;;;11.60;59.30;;;;;;4993040;28;20045;-75
2021/03/31 01:10:43;;;;;;;19.07;11.07;;;11.60;59.50;;;;;;4996102;28;20050;-78
2021/03/31 01:13:24;;;;;;;21.43;10.73;;;11.60;59.60;;;;;;4998414;28;20076;-74
2021/03/31 01:16:13;;;;;;;21.57;10.60;;;11.50;59.50;;;;;;4995840;28;20038;-74
2021/03/31 01:18:55;;;;;;;18.97;10.97;;;11.40;59.50;;;;;;5001855;28;20737;-78
2021/03/31 01:21:33;;;;;;;20.23;10.90;;;11.20;59.40;;;;;;5002683;28;20440;-74
2021/03/31 01:24:20;;;;;;;18.83;10.80;;;11.10;58.90;;;;;;4996284;28;20665;-73
2021/03/31 01:26:48;;;;;;;20.43;10.40;;;11.00;59.40;;;;;;4998891;28;20026;-73
2021/03/31 01:29:35;;;;;;;20.63;10.67;;;11.00;59.20;;;;;;4998886;28;20026;-75
2021/03/31 01:32:08;;;;;;;18.17;10.10;;;11.00;59.20;;;;;;4997111;28;20137;-73
2021/03/31 01:34:54;;;;;;;20.60;10.53;;;10.90;59.00;;;;;;4996142;28;20030;-74
2021/03/31 01:37:31;;;;;;;19.10;10.27;;;10.90;59.60;;;;;;4982540;28;20420;-74
2021/03/31 01:39:58;;;;;;;18.50;10.03;;;10.90;59.60;;;;;;5002223;28;20038;-73
2021/03/31 01:42:28;;;;;;;16.50;9.43;;;10.80;59.40;;;;;;5010164;28;20362;-73
2021/03/31 01:44:59;;;;;;;17.90;10.13;;;10.80;59.50;;;;;;5009326;28;20084;-74
2021/03/31 01:47:27;;;;;;;17.80;9.17;;;10.70;59.50;;;;;;5005394;28;20107;-74
2021/03/31 01:49:54;;;;;;;20.70;10.27;;;10.70;59.90;;;;;;5003926;28;20079;-73
2021/03/31 01:52:21;;;;;;;20.63;9.93;;;10.70;60.10;;;;;;4995339;28;20433;-74
2021/03/31 01:54:48;;;;;;;15.07;8.57;;;10.70;60.30;;;;;;5012341;28;20497;-73
2021/03/31 01:57:14;;;;;;;20.17;9.10;;;10.70;60.30;;;;;;5005334;28;20113;-74
2021/03/31 01:59:42;;;;;;;15.67;8.83;;;10.70;60.40;;;;;;4992826;28;20173;-74
2021/03/31 02:02:10;;;;;;;13.53;8.03;;;10.70;60.70;;;;;;5000377;28;20034;-74
2021/03/31 02:04:40;;;;;;;11.60;7.43;;;10.80;60.60;;;;;;5012566;28;20034;-74
2021/03/31 02:07:07;;;;;;;16.90;9.03;;;10.80;60.10;;;;;;5012646;28;20041;-74
2021/03/31 02:09:43;;;;;;;16.13;8.13;;;10.80;60.10;;;;;;5014315;28;20041;-74
2021/03/31 02:12:13;;;;;;;15.07;7.60;;;10.80;60.00;;;;;;5003447;28;20524;-75
2021/03/31 02:14:44;;;;;;;14.83;8.27;;;10.80;60.30;;;;;;4983821;28;20046;-74
2021/03/31 02:17:15;;;;;;;14.07;7.40;;;10.70;60.40;;;;;;4982394;28;20033;-74
2021/03/31 02:19:42;;;;;;;17.03;6.67;;;10.70;60.30;;;;;;5001464;28;20465;-76
2021/03/31 02:22:08;;;;;;;10.87;7.00;;;10.70;60.10;;;;;;4982522;28;20137;-74
2021/03/31 02:24:35;;;;;;;14.97;7.07;;;10.70;60.20;;;;;;4999884;28;20536;-74
2021/03/31 02:27:01;;;;;;;11.50;6.30;;;10.70;60.20;;;;;;5007127;28;20481;-74
2021/03/31 02:29:27;;;;;;;12.53;6.40;;;10.80;60.10;;;;;;5000886;28;20035;-77
2021/03/31 02:31:54;;;;;;;14.03;6.07;;;10.80;60.20;;;;;;4998069;28;20110;-75
2021/03/31 02:34:21;;;;;;;10.97;5.30;;;10.80;59.50;;;;;;5001244;28;20025;-73
2021/03/31 02:36:49;;;;;;;12.73;6.00;;;10.80;59.20;;;;;;4986712;28;20026;-78
2021/03/31 02:39:16;;;;;;;9.83;5.43;;;10.80;59.80;;;;;;4980788;28;20077;-76
2021/03/31 02:41:50;;;;;;;13.90;5.97;;;10.80;59.20;;;;;;5004320;28;20109;-73
2021/03/31 02:44:21;;;;;;;13.37;6.33;;;10.80;59.10;;;;;;5005534;28;20030;-75
2021/03/31 02:46:48;;;;;;;11.57;5.87;;;10.70;59.20;;;;;;5008447;28;20018;-74
2021/03/31 02:49:16;;;;;;;10.87;6.13;;;10.70;59.50;;;;;;5010295;28;20049;-74
2021/03/31 02:51:43;;;;;;;11.70;5.63;;;10.70;59.60;;;;;;5004183;28;20080;-74
2021/03/31 02:54:10;;;;;;;12.63;6.50;;;10.70;60.30;;;;;;4997517;28;20034;-74
2021/03/31 02:56:39;;;;;;;10.77;5.90;;;10.70;59.80;;;;;;4996208;28;20088;-76
2021/03/31 02:59:05;;;;;;;11.03;5.57;;;10.70;60.00;;;;;;4996042;28;20045;-76
2021/03/31 03:01:32;;;;;;;9.80;5.33;;;10.70;60.00;;;;;;5002217;28;20117;-74
2021/03/31 03:03:58;;;;;;;14.30;6.20;;;10.60;60.10;;;;;;4984610;28;20033;-75
2021/03/31 03:06:25;;;;;;;13.57;6.10;;;10.60;60.30;;;;;;4995793;28;20072;-74
2021/03/31 03:08:56;;;;;;;9.83;5.80;;;10.60;60.20;;;;;;5002722;28;20500;-73
2021/03/31 03:11:23;;;;;;;10.60;5.70;;;10.40;60.20;;;;;;5001309;28;20474;-73
2021/03/31 03:13:49;;;;;;;10.23;5.70;;;10.40;60.40;;;;;;4997950;28;20148;-75
2021/03/31 03:16:16;;;;;;;12.23;6.60;;;10.30;60.80;;;;;;4996296;28;20037;-73
2021/03/31 03:18:42;;;;;;;11.20;5.50;;;10.30;61.20;;;;;;5006962;28;20036;-79
2021/03/31 03:21:09;;;;;;;15.90;6.23;;;10.30;61.50;;;;;;5011829;28;20405;-74
2021/03/31 03:23:36;;;;;;;9.70;5.27;;;10.30;61.50;;;;;;4993381;28;20034;-74
2021/03/31 03:26:03;;;;;;;12.97;5.90;;;10.20;61.30;;;;;;4994699;28;20030;-74
2021/03/31 03:28:31;;;;;;;11.27;5.40;;;10.20;61.30;;;;;;4992120;28;20383;-74
2021/03/31 03:30:58;;;;;;;10.97;5.60;;;10.20;61.60;;;;;;5008187;28;20030;-73
2021/03/31 03:33:26;;;;;;;11.93;5.20;;;10.10;61.70;;;;;;4996941;28;20423;-75
2021/03/31 03:35:51;;;;;;;8.73;5.10;;;10.10;61.90;;;;;;5012853;28;20026;-74
2021/03/31 03:38:21;;;;;;;13.93;5.23;;;10.10;62.10;;;;;;4978679;28;20042;-73
2021/03/31 03:40:46;;;;;;;12.00;5.23;;;10.10;62.30;;;;;;5006598;28;20041;-74
2021/03/31 03:43:16;;;;;;;9.80;5.33;;;10.20;62.40;;;;;;5003413;28;20492;-74
2021/03/31 03:45:43;;;;;;;11.63;5.70;;;10.20;62.30;;;;;;5005627;28;20532;-78
2021/03/31 03:48:09;;;;;;;12.43;5.90;;;10.20;62.20;;;;;;4997466;28;20467;-74
2021/03/31 03:50:35;;;;;;;12.73;6.30;;;10.20;62.00;;;;;;4999559;28;20036;-75
2021/03/31 03:53:01;;;;;;;10.23;5.40;;;10.20;62.00;;;;;;4981285;28;20022;-73
2021/03/31 03:55:27;;;;;;;13.10;5.30;;;10.10;62.30;;;;;;4979299;28;20034;-74
2021/03/31 03:57:54;;;;;;;12.40;5.67;;;10.10;62.50;;;;;;4963162;28;20121;-75
2021/03/31 04:00:24;;;;;;;11.63;5.53;;;10.10;62.50;;;;;;4997250;28;20137;-74
2021/03/31 04:02:55;;;;;;;16.43;6.23;;;10.10;62.70;;;;;;5003549;28;20022;-74
2021/03/31 04:05:21;;;;;;;9.50;5.30;;;10.00;62.90;;;;;;4999387;28;20411;-74
2021/03/31 04:07:47;;;;;;;13.90;6.00;;;10.10;63.10;;;;;;5002125;28;20056;-78
2021/03/31 04:10:15;;;;;;;10.63;6.10;;;10.10;63.40;;;;;;4982898;28;20037;-75
2021/03/31 04:12:41;;;;;;;11.27;5.60;;;10.10;63.30;;;;;;4985044;28;20046;-74
2021/03/31 04:15:09;;;;;;;13.07;6.17;;;10.10;63.30;;;;;;4997472;28;20087;-74
2021/03/31 04:17:39;;;;;;;15.47;6.73;;;10.00;63.40;;;;;;5000327;28;20026;-74
2021/03/31 04:20:11;;;;;;;11.43;6.43;;;10.00;63.50;;;;;;5001235;28;20591;-74
2021/03/31 04:22:37;;;;;;;14.17;6.03;;;9.90;63.60;;;;;;4971140;28;20088;-74
2021/03/31 04:25:04;;;;;;;14.80;6.47;;;9.90;63.70;;;;;;4994627;28;20026;-73
2021/03/31 04:27:30;;;;;;;13.60;6.60;;;9.80;63.90;;;;;;5001097;28;20034;-75
2021/03/31 04:29:57;;;;;;;12.90;6.37;;;9.80;64.20;;;;;;4998048;28;20038;-73
2021/03/31 04:32:24;;;;;;;12.53;6.50;;;9.80;64.50;;;;;;5003772;28;20543;-74
2021/03/31 04:34:51;;;;;;;13.33;6.30;;;9.70;64.50;;;;;;4986313;28;20066;-79
2021/03/31 04:37:17;;;;;;;19.77;7.43;;;9.80;64.60;;;;;;5000213;28;20038;-74
2021/03/31 04:39:43;;;;;;;13.67;6.07;;;9.70;64.70;;;;;;4997709;28;20041;-75
2021/03/31 04:42:09;;;;;;;14.53;6.67;;;9.60;64.80;;;;;;4978778;28;20065;-74
2021/03/31 04:44:35;;;;;;;14.03;6.93;;;9.60;65.00;;;;;;4992992;28;20027;-77
2021/03/31 04:47:02;;;;;;;15.33;6.70;;;9.60;65.10;;;;;;5008637;28;20483;-73
2021/03/31 04:49:28;;;;;;;19.63;7.23;;;9.60;65.30;;;;;;5008484;28;20026;-73
2021/03/31 04:51:53;;;;;;;16.03;7.03;;;9.60;65.10;;;;;;4973995;28;20038;-73
2021/03/31 04:54:19;;;;;;;15.13;6.80;;;9.60;65.40;;;;;;4974059;28;20471;-74
2021/03/31 04:56:45;;;;;;;13.37;6.60;;;9.60;65.50;;;;;;4957542;28;20066;-74
2021/03/31 04:59:10;;;;;;;15.53;6.77;;;9.60;65.70;;;;;;4990319;28;20172;-74
2021/03/31 05:01:36;;;;;;;14.03;6.67;;;9.60;65.90;;;;;;4998366;28;20112;-75
2021/03/31 05:04:02;;;;;;;12.83;6.00;;;9.70;65.60;;;;;;4994563;28;20031;-74
2021/03/31 05:06:27;;;;;;;14.93;6.67;;;9.70;65.50;;;;;;4964806;28;20045;-74
2021/03/31 05:08:53;;;;;;;13.63;6.10;;;9.70;65.40;;;;;;4997900;28;20038;-78
2021/03/31 05:11:19;;;;;;;13.50;6.20;;;9.70;65.60;;;;;;4998473;28;20030;-75
2021/03/31 05:13:44;;;;;;;12.77;5.90;;;9.80;65.70;;;;;;4975572;28;20544;-74
2021/03/31 05:16:10;;;;;;;15.73;6.70;;;9.90;65.60;;;;;;4989421;28;20319;-74
2021/03/31 05:18:36;;;;;;;11.67;6.60;;;9.90;65.40;;;;;;4976011;28;20049;-76
2021/03/31 05:21:02;;;;;;;12.57;6.60;;;9.90;65.30;;;;;;4998385;28;20045;-76
2021/03/31 05:23:27;;;;;;;11.40;6.13;;;9.90;65.50;;;;;;4995995;28;20448;-75
2021/03/31 05:25:53;;;;;;;12.97;6.40;;;9.90;65.50;;;;;;4994609;28;20034;-78
2021/03/31 05:28:19;;;;;;;13.47;5.90;;;10.00;65.60;;;;;;4996490;28;20524;-74
2021/03/31 05:30:44;;;;;;;11.43;5.93;;;10.00;65.60;;;;;;4995581;28;20474;-75
2021/03/31 05:33:10;;;;;;;14.40;6.93;;;10.10;65.70;;;;;;4997843;28;20049;-75
2021/03/31 05:35:35;;;;;;;13.90;6.77;;;10.30;65.60;;;;;;4979014;28;20038;-74
2021/03/31 05:38:01;;;;;;;14.90;6.77;;;10.60;64.70;;;;;;4994624;28;20418;-74
2021/03/31 05:40:31;;;;;;;13.20;6.50;;;11.10;63.50;;;;;;4999240;28;20049;-73
2021/03/31 05:42:57;;;;;;;11.67;6.40;;;11.60;61.90;;;;;;4980647;28;20031;-78
2021/03/31 05:45:23;;;;;;;15.40;7.30;;;12.20;60.60;;;;;;4996213;28;20038;-76
2021/03/31 05:47:49;;;;;;;12.50;6.50;;;12.80;58.80;;;;;;4998062;28;20046;-74
2021/03/31 05:50:16;;;;;;;17.23;7.20;;;13.30;56.70;;;;;;4988499;28;20902;-75
2021/03/31 05:52:43;;;;;;;15.23;7.10;;;13.80;54.90;;;;;;5007145;28;20034;-75
2021/03/31 05:55:14;;;;;;;16.00;7.37;;;14.30;53.00;;;;;;4999675;28;20031;-74
2021/03/31 05:57:42;;;;;;;17.30;7.33;;;14.80;51.60;;;;;;4998676;28;20500;-75
2021/03/31 06:00:14;;;;;;;14.07;6.47;;;15.20;50.50;;;;;;4998247;28;20417;-74
2021/03/31 06:02:43;;;;;;;21.27;7.47;;;15.60;49.40;;;;;;4982030;28;20033;-76
2021/03/31 06:05:11;;;;;;;16.05;7.05;;;16.00;48.30;;;;;;5008356;28;20061;-74
2021/03/31 06:07:40;;;;;;;21.05;7.05;;;16.40;47.30;;;;;;5008902;28;20137;-74
2021/03/31 06:10:09;;;;;;;13.13;6.82;;;16.90;46.00;;;;;;5001962;28;20042;-75
2021/03/31 06:12:37;;;;;;;13.70;6.10;;;17.30;44.90;;;;;;4990305;28;20113;-74
2021/03/31 06:15:17;;;;;;;15.25;6.20;;;17.60;44.10;;;;;;4971961;28;20398;-78
2021/03/31 06:18:08;;;;;;;11.85;6.32;;;18.00;43.20;;;;;;4999712;28;20058;-77
2021/03/31 06:21:04;;;;;;;15.57;6.55;;;18.40;42.50;;;;;;4993671;28;20104;-76
2021/03/31 06:26:27;;;;;;;11.95;6.30;;;19.00;40.90;;;;;;4999020;28;20470;-74
2021/03/31 06:29:04;;;;;;;12.38;6.80;;;19.40;39.90;;;;;;4994556;28;20047;-75
2021/03/31 06:31:32;;;;;;;15.15;6.38;;;19.60;39.00;;;;;;4982762;28;20031;-74
2021/03/31 06:34:09;;;;;;;13.60;6.05;;;19.80;38.80;;;;;;4997985;28;20037;-75
2021/03/31 06:36:36;;;;;;;15.25;6.55;;;20.00;38.00;;;;;;5000020;28;20054;-74
2021/03/31 06:39:26;;;;;;;14.10;6.05;;;20.30;37.70;;;;;;4980137;28;20081;-80
2021/03/31 06:42:25;;;;;;;17.42;7.20;;;20.70;37.20;;;;;;4997011;28;20026;-74
2021/03/31 06:47:26;;;;;;;11.20;6.45;;;21.40;35.80;;;;;;4994561;28;20081;-74
2021/03/31 06:49:53;;;;;;;14.30;6.63;;;21.70;35.30;;;;;;5012715;28;20088;-74
2021/03/31 06:52:18;;;;;;;10.57;6.50;;;22.10;35.00;;;;;;5004590;28;20056;-74
2021/03/31 06:54:50;;;;;;;15.23;6.90;;;22.30;34.50;;;;;;5008065;28;20029;-77
2021/03/31 06:57:34;;;;;;;12.90;7.03;;;22.50;34.40;;;;;;5003681;28;20034;-75
2021/03/31 07:00:01;;;;;;;14.40;6.70;;;22.80;34.00;;;;;;5008952;28;20474;-74
2021/03/31 07:02:29;;;;;;;13.60;7.75;;;23.00;33.40;;;;;;4989128;28;20597;-75
2021/03/31 07:04:55;;;;;;;12.90;7.18;;;23.30;33.20;;;;;;5007310;28;20168;-74
2021/03/31 07:07:47;;;;;;;15.10;7.25;;;23.40;32.90;;;;;;5002650;28;20030;-76
2021/03/31 07:10:18;;;;;;;16.10;6.85;;;23.80;33.00;;;;;;4982481;28;20046;-76
2021/03/31 07:12:49;;;;;;;13.75;8.07;;;24.10;32.20;;;;;;5002971;28;20173;-76
2021/03/31 07:15:17;;;;;;;15.93;7.22;;;24.50;31.80;;;;;;5005275;28;20607;-76
2021/03/31 07:17:47;;;;;;;15.27;7.75;;;24.70;31.50;;;;;;5005040;28;20053;-74
2021/03/31 07:20:13;;;;;;;19.52;8.20;;;24.90;31.10;;;;;;5004300;28;20037;-75
2021/03/31 07:22:39;;;;;;;17.52;8.07;;;25.20;30.30;;;;;;5005051;28;20030;-73
2021/03/31 07:25:07;;;;;;;15.77;8.38;;;25.40;30.40;;;;;;4989504;28;20034;-74
2021/03/31 07:27:34;;;;;;;17.30;8.18;;;25.60;29.80;;;;;;5004828;28;20080;-75
2021/03/31 07:30:06;;;;;;;14.88;8.75;;;25.70;29.60;;;;;;5005744;28;20534;-76
2021/03/31 07:32:35;;;;;;;14.57;7.97;;;25.40;29.90;;;;;;5007074;28;20026;-74
2021/03/31 07:35:02;;;;;;;16.13;8.25;;;25.50;29.40;;;;;;5009140;28;20038;-74
2021/03/31 07:37:30;;;;;;;15.57;7.65;;;25.30;29.80;;;;;;4992862;28;20041;-73
2021/03/31 07:40:00;;;;;;;15.68;8.18;;;25.40;29.50;;;;;;4988300;28;20065;-75
2021/03/31 07:42:27;;;;;;;13.55;8.02;;;25.40;29.60;;;;;;5005771;28;20030;-75
2021/03/31 07:44:53;;;;;;;23.13;9.35;;;25.10;29.30;;;;;;4994230;28;20044;-74
2021/03/31 07:47:20;;;;;;;16.30;8.52;;;25.10;30.10;;;;;;4992281;28;20034;-73
2021/03/31 07:49:48;;;;;;;17.88;8.80;;;25.50;30.00;;;;;;5003328;28;20065;-74
2021/03/31 07:52:13;;;;;;;16.40;8.98;;;26.10;29.70;;;;;;5011684;28;20532;-80
2021/03/31 07:54:39;;;;;;;16.85;8.63;;;26.40;29.50;;;;;;5011986;28;20022;-73
2021/03/31 07:57:33;;;;;;;18.38;8.23;;;26.50;29.10;;;;;;4993911;28;20022;-73
2021/03/31 07:59:58;;;;;;;17.05;9.10;;;26.30;28.40;;;;;;5009086;28;20026;-72
2021/03/31 08:02:27;;;;;;;22.77;13.48;;;26.00;28.90;;;;;;4982237;28;20121;-74
2021/03/31 08:05:10;;;;;;;25.52;10.90;;;26.20;30.00;;;;;;4985871;28;20113;-76
2021/03/31 08:07:35;;;;;;;19.80;10.57;;;26.80;30.00;;;;;;5005175;28;20620;-75
2021/03/31 08:10:37;;;;;;;22.48;12.95;;;27.30;28.80;;;;;;4984269;28;20041;-74
2021/03/31 08:13:35;;;;;;;15.60;9.48;;;27.60;28.60;;;;;;4917382;29;20063;-74
2021/03/31 08:16:22;;;;;;;14.95;8.52;;;27.90;28.40;;;;;;5001318;28;20093;-75
2021/03/31 08:18:52;;;;;;;16.58;9.85;;;28.10;27.60;;;;;;4994003;28;20018;-74
2021/03/31 08:21:23;;;;;;;15.82;8.38;;;28.00;28.30;;;;;;4987058;28;20034;-80
2021/03/31 08:23:51;;;;;;;16.67;9.95;;;27.90;27.70;;;;;;5003556;28;20018;-76
2021/03/31 08:26:25;;;;;;;19.23;9.43;;;28.00;28.80;;;;;;4997429;28;20035;-80
2021/03/31 08:28:51;;;;;;;12.02;9.20;;;28.20;27.90;;;;;;5005022;28;20113;-73
2021/03/31 08:31:23;;;;;;;16.40;10.43;;;28.40;28.30;;;;;;4994744;28;20109;-73
2021/03/31 08:33:49;;;;;;;;;;;29.00;28.30;;;;;;4970868;28;20427;-73
2021/03/31 08:36:15;;;;;;;11.70;8.23;;;29.50;27.90;;;;;;4993857;28;19921;-74
2021/03/31 08:38:41;;;;;;;13.05;8.57;;;29.80;27.70;;;;;;4982776;28;20053;-75
2021/03/31 08:41:14;;;;;;;13.15;7.50;;;30.20;26.50;;;;;;4999220;28;20040;-76
2021/03/31 08:43:40;;;;;;;11.60;7.35;;;30.30;26.00;;;;;;4981964;28;20643;-74
2021/03/31 08:46:06;;;;;;;12.57;7.55;;;30.10;25.80;;;;;;4984767;28;20030;-76
2021/03/31 08:48:42;;;;;;;11.20;7.18;;;30.00;26.30;;;;;;5005059;28;20033;-75
2021/03/31 08:51:12;;;;;;;11.52;7.55;;;29.80;26.10;;;;;;5001567;28;20121;-75
2021/03/31 08:53:38;;;;;;;11.15;7.63;;;29.70;26.20;;;;;;5007040;28;20029;-76
2021/03/31 08:56:04;;;;;;;12.18;7.90;;;29.60;26.50;;;;;;5007899;28;20100;-76
2021/03/31 08:58:30;;;;;;;10.13;7.35;;;29.50;26.80;;;;;;4996452;28;20030;-75
2021/03/31 09:00:58;;;;;;;11.30;7.00;;;29.40;26.50;;;;;;5000792;28;20497;-78
2021/03/31 09:03:29;;;;;;;10.93;6.80;;;28.90;26.50;;;;;;4998606;28;20034;-80
2021/03/31 09:06:03;;;;;;;11.88;6.80;;;28.70;27.40;;;;;;5000807;28;20039;-74
2021/03/31 09:08:30;;;;;;;14.23;6.88;;;28.80;27.40;;;;;;4991070;28;20041;-76
2021/03/31 09:11:03;;;;;;;8.75;6.43;;;29.20;27.40;;;;;;4990516;28;20030;-75
2021/03/31 09:13:32;;;;;;;9.38;6.13;;;29.70;27.50;;;;;;4979136;28;20061;-76
2021/03/31 09:15:59;;;;;;;9.40;6.30;;;30.10;27.00;;;;;;4981018;28;20113;-75
2021/03/31 09:18:25;;;;;;;9.82;6.93;;;30.20;26.60;;;;;;4999654;28;20844;-80
2021/03/31 09:20:51;;;;;;;11.15;7.32;;;30.20;26.30;;;;;;5001954;28;20042;-76
2021/03/31 09:23:25;;;;;;;8.50;5.47;;;29.90;26.20;;;;;;4991375;28;20101;-75
2021/03/31 09:26:00;;;;;;;7.90;4.70;;;29.50;26.00;;;;;;4973200;28;20033;-74
2021/03/31 09:28:27;;;;;;;8.77;5.35;;;29.80;26.40;;;;;;4990418;28;20813;-75
2021/03/31 09:30:55;;;;;;;7.72;5.15;;;30.10;26.20;;;;;;4991128;28;20045;-75
2021/03/31 09:33:26;;;;;;;9.02;4.80;;;30.30;26.10;;;;;;4989736;28;20026;-76
2021/03/31 09:35:53;;;;;;;7.95;4.30;;;30.60;25.90;;;;;;4989906;28;20121;-75
2021/03/31 09:38:28;;;;;;;7.22;4.50;;;31.00;25.70;;;;;;4974104;28;20110;-75
2021/03/31 09:41:04;;;;;;;8.52;5.00;;;31.30;25.60;;;;;;4989755;28;20038;-75
2021/03/31 09:43:30;;;;;;;7.18;4.78;;;31.70;25.10;;;;;;4978920;28;20066;-80
2021/03/31 09:45:57;;;;;;;6.95;3.47;;;31.80;24.50;;;;;;4999793;28;20030;-74
2021/03/31 09:48:23;;;;;;;6.68;4.20;;;31.80;25.00;;;;;;4977193;28;20035;-76
2021/03/31 09:50:49;;;;;;;6.10;4.18;;;31.80;24.60;;;;;;4980616;28;20034;-78
2021/03/31 09:53:15;;;;;;;7.47;4.30;;;32.00;24.90;;;;;;5007836;28;20076;-75
2021/03/31 09:55:41;;;;;;;8.02;5.13;;;32.20;24.90;;;;;;4982028;28;20478;-76
2021/03/31 09:58:07;;;;;;;5.75;4.13;;;32.10;24.30;;;;;;4998185;28;20108;-76
2021/03/31 10:00:38;;;;;;;5.00;4.30;;;31.70;24.70;;;;;;4994775;28;20038;-80
2021/03/31 10:03:05;;;;;;;6.85;4.97;;;31.90;25.20;;;;;;4998776;28;20034;-74
2021/03/31 10:05:31;;;;;;;10.05;4.25;;;31.80;25.50;;;;;;4975957;28;20449;-76
2021/03/31 10:08:03;;;;;;;7.18;4.05;;;31.70;24.90;;;;;;5003095;28;20068;-74
2021/03/31 10:10:46;;;;;;;4.90;4.15;;;31.50;24.60;;;;;;5012962;28;20034;-75
2021/03/31 10:13:13;;;;;;;7.05;4.75;;;31.30;25.10;;;;;;5013210;28;20050;-74
2021/03/31 10:15:41;;;;;;;7.45;4.72;;;31.00;24.80;;;;;;5013201;28;20045;-76
2021/03/31 10:18:09;;;;;;;8.82;5.03;;;31.10;25.70;;;;;;4996096;28;20053;-73
2021/03/31 10:20:42;;;;;;;6.65;3.72;;;31.50;25.60;;;;;;5006426;28;20053;-78
2021/03/31 10:23:43;;;;;;;6.68;4.53;;;31.60;25.40;;;;;;4977243;28;20487;-73
2021/03/31 10:26:24;;;;;;;6.80;4.93;;;32.00;25.30;;;;;;4993474;28;20065;-73
2021/03/31 10:28:51;;;;;;;9.47;5.00;;;32.50;25.10;;;;;;4993252;28;20030;-74
2021/03/31 10:31:21;;;;;;;6.63;5.07;;;32.60;24.90;;;;;;4976054;28;20788;-74
2021/03/31 10:33:47;;;;;;;7.82;4.72;;;32.30;24.40;;;;;;4993250;28;20034;-75
2021/03/31 10:36:57;;;;;;;8.50;5.20;;;32.00;25.10;;;;;;5005037;28;20038;-74
2021/03/31 10:50:47;;;;;;;9.18;5.65;;;32.90;24.90;;;;;;5002391;28;20096;-75
2021/03/31 10:53:13;;;;;;;9.15;5.50;;;32.80;25.10;;;;;;4999728;28;20045;-76
2021/03/31 10:55:42;;;;;;;8.43;5.68;;;32.90;25.30;;;;;;4997106;28;20034;-75
2021/03/31 10:58:08;;;;;;;8.65;6.30;;;33.10;25.30;;;;;;4999932;28;20049;-79
2021/03/31 11:00:36;;;;;;;8.05;5.78;;;33.20;25.20;;;;;;4982463;28;20061;-75
2021/03/31 11:03:04;;;;;;;9.40;5.75;;;33.10;25.40;;;;;;4976385;28;20038;-75
2021/03/31 11:05:31;;;;;;;10.85;6.65;;;32.80;24.70;;;;;;4984429;28;20508;-78
2021/03/31 11:07:57;;;;;;;9.95;6.05;;;32.50;25.70;;;;;;4999515;28;20117;-76
2021/03/31 11:10:25;;;;;;;12.75;6.40;;;32.40;25.60;;;;;;5010607;28;20137;-76
2021/03/31 11:12:51;;;;;;;9.25;6.93;;;32.20;25.00;;;;;;4992246;28;20114;-79
2021/03/31 11:15:20;;;;;;;9.85;5.88;;;31.90;25.90;;;;;;5009762;28;20811;-75
2021/03/31 11:20:47;;;;;;;8.98;5.95;;;32.60;25.70;;;;;;4993011;28;20053;-75
2021/03/31 11:25:59;;;;;;;10.13;7.35;;;32.80;24.90;;;;;;5005007;28;20071;-76
2021/03/31 11:28:25;;;;;;;9.55;7.10;;;32.40;25.10;;;;;;5001438;28;20034;-75
2021/03/31 11:30:52;;;;;;;10.02;6.80;;;32.20;25.00;;;;;;5009785;28;20101;-75
2021/03/31 11:33:22;;;;;;;8.55;5.78;;;31.80;24.80;;;;;;4988796;28;20034;-75
2021/03/31 11:35:50;;;;;;;10.15;6.45;;;31.80;25.50;;;;;;4999750;28;20087;-81
2021/03/31 11:38:16;;;;;;;8.90;5.72;;;32.00;25.20;;;;;;5011261;28;20042;-76
2021/03/31 11:40:42;;;;;;;8.23;3.40;;;32.00;25.20;;;;;;4993552;28;20514;-75
2021/03/31 11:43:10;;;;;;;6.30;3.10;;;31.70;24.70;;;;;;5010181;28;20033;-75
2021/03/31 11:45:35;;;;;;;4.32;3.63;;;31.50;25.10;;;;;;5003471;28;20041;-74
2021/03/31 11:48:01;;;;;;;5.72;3.45;;;31.40;25.60;;;;;;4984160;28;20034;-77
2021/03/31 11:50:27;;;;;;;9.38;3.65;;;31.90;25.80;;;;;;4972836;28;20061;-75
2021/03/31 11:52:54;;;;;;;7.22;4.10;;;31.90;25.40;;;;;;4999369;28;20508;-75
2021/03/31 11:55:20;;;;;;;8.45;4.70;;;31.70;25.60;;;;;;5000646;28;20482;-75
2021/03/31 11:57:46;;;;;;;10.73;4.70;;;31.60;25.30;;;;;;4988825;28;20051;-76
2021/03/31 12:00:12;;;;;;;8.07;4.82;;;31.40;26.10;;;;;;4992696;28;20794;-76
2021/03/31 12:02:37;;;;;;;10.38;4.90;;;31.10;26.20;;;;;;5005315;28;20027;-76
2021/03/31 12:05:04;;;;;;;6.20;4.50;;;31.00;26.00;;;;;;5008440;28;20036;-75
2021/03/31 12:07:29;;;;;;;7.60;4.03;;;30.90;26.50;;;;;;4995043;28;20038;-75
2021/03/31 12:09:55;;;;;;;9.43;4.93;;;31.10;27.00;;;;;;4975365;28;20059;-74
2021/03/31 12:12:21;;;;;;;9.20;4.97;;;31.10;25.80;;;;;;5010718;28;20026;-74
2021/03/31 12:14:47;;;;;;;5.78;4.10;;;31.00;26.40;;;;;;5011115;28;20042;-75
2021/03/31 12:17:13;;;;;;;6.35;3.70;;;31.10;26.40;;;;;;4991620;28;20034;-77
2021/03/31 12:19:39;;;;;;;5.40;4.43;;;31.50;26.50;;;;;;5010976;28;20048;-75
2021/03/31 12:22:05;;;;;;;7.47;4.60;;;31.70;26.40;;;;;;5010472;28;20117;-75
2021/03/31 12:24:31;;;;;;;4.88;4.07;;;31.80;26.10;;;;;;4993046;28;20038;-76
2021/03/31 12:27:04;;;;;;;7.28;3.80;;;31.80;26.40;;;;;;4973378;28;20045;-75
2021/03/31 12:29:30;;;;;;;8.80;4.32;;;31.90;26.40;;;;;;5002284;28;20046;-76
2021/03/31 12:31:56;;;;;;;7.57;4.93;;;31.90;26.30;;;;;;4990705;28;20034;-76
2021/03/31 12:34:22;;;;;;;10.10;4.15;;;32.00;26.10;;;;;;4991768;28;20030;-74
2021/03/31 12:36:47;;;;;;;7.70;4.57;;;31.70;26.20;;;;;;4974370;28;20053;-76
2021/03/31 12:39:13;;;;;;;8.32;4.35;;;31.50;26.40;;;;;;4997203;28;20037;-75
2021/03/31 12:41:39;;;;;;;4.90;3.50;;;31.40;26.60;;;;;;4999888;28;20113;-75
2021/03/31 12:44:05;;;;;;;6.43;5.70;;;31.40;26.90;;;;;;4984336;28;20064;-75
2021/03/31 12:46:30;;;;;;;7.53;5.43;;;31.50;26.10;;;;;;4967091;28;20034;-75
2021/03/31 12:48:56;;;;;;;7.13;4.50;;;31.00;26.20;;;;;;4979179;28;20046;-81
2021/03/31 12:51:36;;;;;;;8.20;4.55;;;30.60;27.10;;;;;;4981637;28;20072;-76
2021/03/31 12:54:07;;;;;;;4.90;4.20;;;30.70;27.40;;;;;;4983657;28;20128;-75
2021/03/31 12:56:33;;;;;;;5.68;3.58;;;30.80;27.10;;;;;;4999219;28;20041;-75
2021/03/31 12:58:59;;;;;;;6.05;3.10;;;30.70;27.10;;;;;;5000792;28;20034;-75
2021/03/31 13:01:26;;;;;;;5.88;2.50;;;30.80;27.20;;;;;;4999735;28;20034;-76
2021/03/31 13:03:53;;;;;;;4.78;2.15;;;30.90;26.90;;;;;;4980284;28;20873;-75
2021/03/31 13:06:20;;;;;;;4.50;1.60;;;31.00;26.80;;;;;;5009836;28;20573;-76
2021/03/31 13:08:49;;;;;;;4.35;2.10;;;31.20;26.50;;;;;;5011009;28;20033;-74
2021/03/31 13:11:15;;;;;;;3.63;2.03;;;31.20;26.40;;;;;;4990393;28;20132;-74